sensor_id;sensor_type;location;lat;lon;timestamp;pressure;altitude;pressure_sealevel;temperature;humidity
9421;BME280;4749;51.398;5.466;2022-12-24T00:01:19;100524.47;;;11.09;100.00
9421;BME280;4749;51.398;5.466;2022-12-24T00:03:46;100520.94;;;11.10;100.00
9421;BME280;4749;51.398;5.466;2022-12-24T00:06:22;100520.94;;;11.10;100.00
9421;BME280;4749;51.398;5.466;2022-12-24T00:08:50;100528.84;;;11.08;100.00
9421;BME280;4749;51.398;5.466;2022-12-24T00:11:18;100521.84;;;11.07;100.00
9421;BME280;4749;51.398;5.466;2022-12-24T00:13:45;100525.34;;;11.06;100.00
9421;BME280;4749;51.398;5.466;2022-12-24T00:16:12;100521.84;;;11.06;100.00
9421;BME280;4749;51.398;5.466;2022-12-24T00:18:40;100522.72;;;11.08;100.00
9421;BME280;4749;51.398;5.466;2022-12-24T00:21:13;100517.47;;;11.08;100.00
9421;BME280;4749;51.398;5.466;2022-12-24T00:23:41;100534.97;;;11.09;100.00
9421;BME280;4749;51.398;5.466;2022-12-24T00:26:08;100538.50;;;11.11;100.00
9421;BME280;4749;51.398;5.466;2022-12-24T00:28:35;100535.00;;;11.10;100.00
9421;BME280;4749;51.398;5.466;2022-12-24T00:31:15;100543.75;;;11.12;100.00
9421;BME280;4749;51.398;5.466;2022-12-24T00:33:44;100536.72;;;11.14;100.00
9421;BME280;4749;51.398;5.466;2022-12-24T00:36:12;100544.59;;;11.16;100.00
9421;BME280;4749;51.398;5.466;2022-12-24T00:38:39;100541.09;;;11.17;100.00
9421;BME280;4749;51.398;5.466;2022-12-24T00:41:08;100541.09;;;11.15;100.00
9421;BME280;4749;51.398;5.466;2022-12-24T00:44:03;100557.78;;;11.14;100.00
9421;BME280;4749;51.398;5.466;2022-12-24T00:46:38;100556.91;;;11.09;100.00
9421;BME280;4749;51.398;5.466;2022-12-24T00:49:07;100571.84;;;11.06;100.00
9421;BME280;4749;51.398;5.466;2022-12-24T00:51:35;100563.06;;;11.00;100.00
9421;BME280;4749;51.398;5.466;2022-12-24T00:54:03;100574.50;;;10.98;100.00
9421;BME280;4749;51.398;5.466;2022-12-24T00:56:31;100578.03;;;10.95;100.00
9421;BME280;4749;51.398;5.466;2022-12-24T00:58:58;100569.25;;;10.90;100.00
9421;BME280;4749;51.398;5.466;2022-12-24T01:01:26;100588.56;;;10.86;100.00
9421;BME280;4749;51.398;5.466;2022-12-24T01:03:55;100588.56;;;10.83;100.00
9421;BME280;4749;51.398;5.466;2022-12-24T01:06:42;100585.06;;;10.81;100.00
9421;BME280;4749;51.398;5.466;2022-12-24T01:09:09;100584.19;;;10.75;100.00
9421;BME280;4749;51.398;5.466;2022-12-24T01:11:37;100597.34;;;10.75;100.00
9421;BME280;4749;51.398;5.466;2022-12-24T01:14:04;100595.59;;;10.72;100.00
9421;BME280;4749;51.398;5.466;2022-12-24T01:16:31;100609.66;;;10.68;100.00
9421;BME280;4749;51.398;5.466;2022-12-24T01:18:58;100605.25;;;10.65;100.00
9421;BME280;4749;51.398;5.466;2022-12-24T01:21:25;100612.25;;;10.63;100.00
9421;BME280;4749;51.398;5.466;2022-12-24T01:23:53;100608.75;;;10.63;100.00
9421;BME280;4749;51.398;5.466;2022-12-24T01:26:20;100618.41;;;10.61;100.00
9421;BME280;4749;51.398;5.466;2022-12-24T01:28:47;100613.16;;;10.61;100.00
9421;BME280;4749;51.398;5.466;2022-12-24T01:31:17;100621.00;;;10.59;100.00
9421;BME280;4749;51.398;5.466;2022-12-24T01:33:47;100625.41;;;10.57;100.00
9421;BME280;4749;51.398;5.466;2022-12-24T01:36:15;100631.53;;;10.56;100.00
9421;BME280;4749;51.398;5.466;2022-12-24T01:38:42;100622.81;;;10.53;100.00
9421;BME280;4749;51.398;5.466;2022-12-24T01:41:21;100623.69;;;10.52;100.00
9421;BME280;4749;51.398;5.466;2022-12-24T01:44:31;100627.16;;;10.48;100.00
9421;BME280;4749;51.398;5.466;2022-12-24T01:49:40;100639.44;;;10.47;100.00
9421;BME280;4749;51.398;5.466;2022-12-24T01:52:33;100636.81;;;10.52;100.00
9421;BME280;4749;51.398;5.466;2022-12-24T01:55:08;100638.56;;;10.57;100.00
9421;BME280;4749;51.398;5.466;2022-12-24T01:57:45;100643.81;;;10.63;100.00
9421;BME280;4749;51.398;5.466;2022-12-24T02:00:15;100644.66;;;10.67;100.00
9421;BME280;4749;51.398;5.466;2022-12-24T02:02:46;100642.94;;;10.70;100.00
9421;BME280;4749;51.398;5.466;2022-12-24T02:07:50;100647.31;;;10.78;100.00
9421;BME280;4749;51.398;5.466;2022-12-24T02:10:18;100649.94;;;10.85;100.00
9421;BME280;4749;51.398;5.466;2022-12-24T02:12:45;100651.69;;;10.88;100.00
9421;BME280;4749;51.398;5.466;2022-12-24T02:15:17;100651.66;;;10.91;100.00
9421;BME280;4749;51.398;5.466;2022-12-24T02:18:09;100645.50;;;10.92;100.00
9421;BME280;4749;51.398;5.466;2022-12-24T02:23:41;100653.41;;;10.99;100.00
9421;BME280;4749;51.398;5.466;2022-12-24T02:26:26;100656.03;;;11.01;100.00
9421;BME280;4749;51.398;5.466;2022-12-24T02:32:02;100674.44;;;11.04;100.00
9421;BME280;4749;51.398;5.466;2022-12-24T02:34:44;100671.81;;;10.99;100.00
9421;BME280;4749;51.398;5.466;2022-12-24T02:37:21;100675.34;;;10.95;100.00
9421;BME280;4749;51.398;5.466;2022-12-24T02:40:18;100661.31;;;10.92;100.00
9421;BME280;4749;51.398;5.466;2022-12-24T02:42:52;100671.81;;;10.90;100.00
9421;BME280;4749;51.398;5.466;2022-12-24T02:45:30;100678.84;;;10.88;100.00
9421;BME280;4749;51.398;5.466;2022-12-24T02:47:59;100671.84;;;10.89;100.00
9421;BME280;4749;51.398;5.466;2022-12-24T02:50:27;100677.94;;;10.92;100.00
9421;BME280;4749;51.398;5.466;2022-12-24T02:52:54;100674.47;;;10.95;100.00
9421;BME280;4749;51.398;5.466;2022-12-24T02:55:49;100686.72;;;10.96;100.00
9421;BME280;4749;51.398;5.466;2022-12-24T03:07:22;100688.47;;;11.11;100.00
9421;BME280;4749;51.398;5.466;2022-12-24T03:13:16;100696.31;;;11.17;100.00
9421;BME280;4749;51.398;5.466;2022-12-24T03:15:46;100684.91;;;11.18;100.00
9421;BME280;4749;51.398;5.466;2022-12-24T03:18:17;100696.34;;;11.20;100.00
9421;BME280;4749;51.398;5.466;2022-12-24T03:21:01;100696.34;;;11.20;100.00
9421;BME280;4749;51.398;5.466;2022-12-24T03:23:32;100696.34;;;11.18;100.00
9421;BME280;4749;51.398;5.466;2022-12-24T03:26:05;100700.72;;;11.18;100.00
9421;BME280;4749;51.398;5.466;2022-12-24T03:28:33;100700.72;;;11.15;100.00
9421;BME280;4749;51.398;5.466;2022-12-24T03:31:04;100700.75;;;11.10;100.00
9421;BME280;4749;51.398;5.466;2022-12-24T03:33:32;100708.63;;;11.09;100.00
9421;BME280;4749;51.398;5.466;2022-12-24T03:35:59;100706.88;;;11.09;100.00
9421;BME280;4749;51.398;5.466;2022-12-24T03:38:26;100709.50;;;11.08;100.00
9421;BME280;4749;51.398;5.466;2022-12-24T03:40:53;100712.13;;;11.08;100.00
9421;BME280;4749;51.398;5.466;2022-12-24T03:43:21;100715.66;;;11.05;100.00
9421;BME280;4749;51.398;5.466;2022-12-24T03:45:48;100716.53;;;11.03;100.00
9421;BME280;4749;51.398;5.466;2022-12-24T03:48:15;100720.03;;;10.98;100.00
9421;BME280;4749;51.398;5.466;2022-12-24T03:50:42;100716.53;;;10.99;100.00
9421;BME280;4749;51.398;5.466;2022-12-24T03:53:09;100723.53;;;10.99;100.00
9421;BME280;4749;51.398;5.466;2022-12-24T03:55:37;100713.91;;;10.98;100.00
9421;BME280;4749;51.398;5.466;2022-12-24T03:58:05;100725.31;;;10.97;100.00
9421;BME280;4749;51.398;5.466;2022-12-24T04:00:32;100725.31;;;10.94;100.00
9421;BME280;4749;51.398;5.466;2022-12-24T04:02:59;100729.72;;;10.93;100.00
9421;BME280;4749;51.398;5.466;2022-12-24T04:05:26;100734.09;;;10.94;100.00
9421;BME280;4749;51.398;5.466;2022-12-24T04:07:54;100732.34;;;10.95;100.00
9421;BME280;4749;51.398;5.466;2022-12-24T04:10:21;100721.81;;;10.95;100.00
9421;BME280;4749;51.398;5.466;2022-12-24T04:12:48;100734.09;;;10.96;100.00
9421;BME280;4749;51.398;5.466;2022-12-24T04:15:15;100743.72;;;10.97;100.00
9421;BME280;4749;51.398;5.466;2022-12-24T04:17:42;100734.94;;;10.98;100.00
9421;BME280;4749;51.398;5.466;2022-12-24T04:20:10;100743.72;;;11.00;100.00
9421;BME280;4749;51.398;5.466;2022-12-24T04:22:37;100737.56;;;10.99;100.00
9421;BME280;4749;51.398;5.466;2022-12-24T04:25:04;100754.22;;;11.00;100.00
9421;BME280;4749;51.398;5.466;2022-12-24T04:27:32;100755.97;;;11.01;100.00
9421;BME280;4749;51.398;5.466;2022-12-24T04:29:59;100745.47;;;10.99;100.00
9421;BME280;4749;51.398;5.466;2022-12-24T04:32:26;100757.72;;;11.00;100.00
9421;BME280;4749;51.398;5.466;2022-12-24T04:34:53;100755.97;;;10.99;100.00
9421;BME280;4749;51.398;5.466;2022-12-24T04:37:20;100757.75;;;10.99;100.00
9421;BME280;4749;51.398;5.466;2022-12-24T04:39:47;100763.00;;;10.96;100.00
9421;BME280;4749;51.398;5.466;2022-12-24T04:42:14;100763.88;;;10.92;100.00
9421;BME280;4749;51.398;5.466;2022-12-24T04:44:41;100758.63;;;10.93;100.00
9421;BME280;4749;51.398;5.466;2022-12-24T04:47:08;100756.00;;;10.93;100.00
9421;BME280;4749;51.398;5.466;2022-12-24T04:49:36;100753.34;;;10.92;100.00
9421;BME280;4749;51.398;5.466;2022-12-24T04:52:04;100756.88;;;10.89;100.00
9421;BME280;4749;51.398;5.466;2022-12-24T04:54:31;100757.75;;;10.91;100.00
9421;BME280;4749;51.398;5.466;2022-12-24T04:56:58;100768.25;;;10.90;100.00
9421;BME280;4749;51.398;5.466;2022-12-24T04:59:25;100765.66;;;10.87;100.00
9421;BME280;4749;51.398;5.466;2022-12-24T05:01:52;100761.25;;;10.84;100.00
9421;BME280;4749;51.398;5.466;2022-12-24T05:04:20;100763.00;;;10.82;100.00
9421;BME280;4749;51.398;5.466;2022-12-24T05:06:47;100761.25;;;10.75;100.00
9421;BME280;4749;51.398;5.466;2022-12-24T05:09:14;100766.50;;;10.70;100.00
9421;BME280;4749;51.398;5.466;2022-12-24T05:11:41;100765.63;;;10.67;100.00
9421;BME280;4749;51.398;5.466;2022-12-24T05:14:08;100783.16;;;10.63;100.00
9421;BME280;4749;51.398;5.466;2022-12-24T05:16:35;100773.50;;;10.62;100.00
9421;BME280;4749;51.398;5.466;2022-12-24T05:19:04;100769.13;;;10.61;100.00
9421;BME280;4749;51.398;5.466;2022-12-24T05:21:31;100770.00;;;10.62;100.00
9421;BME280;4749;51.398;5.466;2022-12-24T05:23:58;100765.63;;;10.62;100.00
9421;BME280;4749;51.398;5.466;2022-12-24T05:26:50;100757.72;;;10.58;100.00
9421;BME280;4749;51.398;5.466;2022-12-24T05:29:19;100770.00;;;10.56;100.00
9421;BME280;4749;51.398;5.466;2022-12-24T05:31:46;100760.34;;;10.53;100.00
9421;BME280;4749;51.398;5.466;2022-12-24T05:34:15;100766.50;;;10.52;100.00
9421;BME280;4749;51.398;5.466;2022-12-24T05:36:43;100776.97;;;10.51;100.00
9421;BME280;4749;51.398;5.466;2022-12-24T05:39:17;100771.72;;;10.51;100.00
9421;BME280;4749;51.398;5.466;2022-12-24T05:41:45;100763.84;;;10.46;100.00
9421;BME280;4749;51.398;5.466;2022-12-24T05:44:13;100777.88;;;10.43;100.00
9421;BME280;4749;51.398;5.466;2022-12-24T05:46:41;100788.38;;;10.43;100.00
9421;BME280;4749;51.398;5.466;2022-12-24T05:49:08;100797.13;;;10.44;100.00
9421;BME280;4749;51.398;5.466;2022-12-24T05:51:35;100790.13;;;10.49;100.00
9421;BME280;4749;51.398;5.466;2022-12-24T05:54:03;100805.03;;;10.52;100.00
9421;BME280;4749;51.398;5.466;2022-12-24T05:56:31;100812.06;;;10.57;100.00
9421;BME280;4749;51.398;5.466;2022-12-24T05:58:58;100804.16;;;10.57;100.00
9421;BME280;4749;51.398;5.466;2022-12-24T06:01:26;100805.03;;;10.55;100.00
9421;BME280;4749;51.398;5.466;2022-12-24T06:03:55;100809.44;;;10.54;100.00
9421;BME280;4749;51.398;5.466;2022-12-24T06:06:25;100812.06;;;10.51;100.00
9421;BME280;4749;51.398;5.466;2022-12-24T06:08:54;100812.91;;;10.50;100.00
9421;BME280;4749;51.398;5.466;2022-12-24T06:11:24;100809.41;;;10.47;100.00
9421;BME280;4749;51.398;5.466;2022-12-24T06:13:52;100812.03;;;10.43;100.00
9421;BME280;4749;51.398;5.466;2022-12-24T06:16:22;100814.63;;;10.40;100.00
9421;BME280;4749;51.398;5.466;2022-12-24T06:18:50;100807.63;;;10.38;100.00
9421;BME280;4749;51.398;5.466;2022-12-24T06:21:17;100811.13;;;10.35;100.00
9421;BME280;4749;51.398;5.466;2022-12-24T06:23:46;100802.34;;;10.33;100.00
9421;BME280;4749;51.398;5.466;2022-12-24T06:26:17;100805.84;;;10.29;100.00
9421;BME280;4749;51.398;5.466;2022-12-24T06:28:47;100820.75;;;10.27;100.00
9421;BME280;4749;51.398;5.466;2022-12-24T06:31:20;100824.22;;;10.25;100.00
9421;BME280;4749;51.398;5.466;2022-12-24T06:33:48;100820.72;;;10.23;100.00
9421;BME280;4749;51.398;5.466;2022-12-24T06:36:20;100821.56;;;10.20;100.00
9421;BME280;4749;51.398;5.466;2022-12-24T06:38:48;100837.31;;;10.19;100.00
9421;BME280;4749;51.398;5.466;2022-12-24T06:41:17;100839.91;;;10.17;100.00
9421;BME280;4749;51.398;5.466;2022-12-24T06:43:47;100839.91;;;10.15;100.00
9421;BME280;4749;51.398;5.466;2022-12-24T06:46:15;100836.41;;;10.15;100.00
9421;BME280;4749;51.398;5.466;2022-12-24T06:48:44;100837.28;;;10.15;100.00
9421;BME280;4749;51.398;5.466;2022-12-24T06:51:13;100840.81;;;10.18;100.00
9421;BME280;4749;51.398;5.466;2022-12-24T06:53:40;100840.81;;;10.21;100.00
9421;BME280;4749;51.398;5.466;2022-12-24T06:56:11;100848.72;;;10.22;100.00
9421;BME280;4749;51.398;5.466;2022-12-24T06:58:39;100844.34;;;10.24;100.00
9421;BME280;4749;51.398;5.466;2022-12-24T07:01:10;100846.09;;;10.22;100.00
9421;BME280;4749;51.398;5.466;2022-12-24T07:03:38;100844.31;;;10.21;100.00
9421;BME280;4749;51.398;5.466;2022-12-24T07:06:27;100841.69;;;10.21;100.00
9421;BME280;4749;51.398;5.466;2022-12-24T07:08:55;100854.84;;;10.21;100.00
9421;BME280;4749;51.398;5.466;2022-12-24T07:11:23;100861.84;;;10.19;100.00
9421;BME280;4749;51.398;5.466;2022-12-24T07:13:51;100863.56;;;10.17;100.00
9421;BME280;4749;51.398;5.466;2022-12-24T07:16:18;100860.06;;;10.15;100.00
9421;BME280;4749;51.398;5.466;2022-12-24T07:18:46;100859.22;;;10.18;100.00
9421;BME280;4749;51.398;5.466;2022-12-24T07:21:13;100858.28;;;10.17;100.00
9421;BME280;4749;51.398;5.466;2022-12-24T07:23:40;100866.19;;;10.15;100.00
9421;BME280;4749;51.398;5.466;2022-12-24T07:26:07;100868.81;;;10.15;100.00
9421;BME280;4749;51.398;5.466;2022-12-24T07:28:34;100874.06;;;10.15;100.00
9421;BME280;4749;51.398;5.466;2022-12-24T07:31:01;100891.56;;;10.16;100.00
9421;BME280;4749;51.398;5.466;2022-12-24T07:33:29;100903.88;;;10.18;100.00
9421;BME280;4749;51.398;5.466;2022-12-24T07:35:58;100901.25;;;10.18;100.00
9421;BME280;4749;51.398;5.466;2022-12-24T07:38:26;100889.88;;;10.20;100.00
9421;BME280;4749;51.398;5.466;2022-12-24T07:40:53;100890.75;;;10.19;100.00
9421;BME280;4749;51.398;5.466;2022-12-24T07:43:20;100898.63;;;10.19;100.00
9421;BME280;4749;51.398;5.466;2022-12-24T07:45:47;100899.47;;;10.16;100.00
9421;BME280;4749;51.398;5.466;2022-12-24T07:48:14;100909.09;;;10.14;100.00
9421;BME280;4749;51.398;5.466;2022-12-24T07:50:41;100916.09;;;10.14;100.00
9421;BME280;4749;51.398;5.466;2022-12-24T07:53:09;100919.59;;;10.14;100.00
9421;BME280;4749;51.398;5.466;2022-12-24T07:55:36;100914.38;;;10.18;100.00
9421;BME280;4749;51.398;5.466;2022-12-24T07:58:03;100926.66;;;10.20;100.00
9421;BME280;4749;51.398;5.466;2022-12-24T08:00:30;100931.97;;;10.26;100.00
9421;BME280;4749;51.398;5.466;2022-12-24T08:02:57;100937.25;;;10.32;100.00
9421;BME280;4749;51.398;5.466;2022-12-24T08:05:27;100942.53;;;10.37;100.00
9421;BME280;4749;51.398;5.466;2022-12-24T08:07:55;100936.44;;;10.44;100.00
9421;BME280;4749;51.398;5.466;2022-12-24T08:10:22;100949.59;;;10.47;100.00
9421;BME280;4749;51.398;5.466;2022-12-24T08:12:49;100951.34;;;10.50;100.00
9421;BME280;4749;51.398;5.466;2022-12-24T08:15:17;100957.50;;;10.53;100.00
9421;BME280;4749;51.398;5.466;2022-12-24T08:17:44;100956.63;;;10.53;100.00
9421;BME280;4749;51.398;5.466;2022-12-24T08:20:11;100966.28;;;10.55;100.00
9421;BME280;4749;51.398;5.466;2022-12-24T08:22:38;100968.91;;;10.55;100.00
9421;BME280;4749;51.398;5.466;2022-12-24T08:25:06;100972.41;;;10.59;100.00
9421;BME280;4749;51.398;5.466;2022-12-24T08:27:34;100975.94;;;10.62;100.00
9421;BME280;4749;51.398;5.466;2022-12-24T08:30:03;100978.63;;;10.68;100.00
9421;BME280;4749;51.398;5.466;2022-12-24T08:32:31;100981.25;;;10.71;100.00
9421;BME280;4749;51.398;5.466;2022-12-24T08:34:58;100986.50;;;10.75;100.00
9421;BME280;4749;51.398;5.466;2022-12-24T08:37:25;100981.28;;;10.81;100.00
9421;BME280;4749;51.398;5.466;2022-12-24T08:39:52;100982.19;;;10.86;100.00
9421;BME280;4749;51.398;5.466;2022-12-24T08:42:20;100991.84;;;10.88;100.00
9421;BME280;4749;51.398;5.466;2022-12-24T08:44:47;100991.00;;;10.94;100.00
9421;BME280;4749;51.398;5.466;2022-12-24T08:47:15;100983.97;;;10.99;100.00
9421;BME280;4749;51.398;5.466;2022-12-24T08:49:42;100995.41;;;11.03;100.00
9421;BME280;4749;51.398;5.466;2022-12-24T08:52:10;100997.16;;;11.07;100.00
9421;BME280;4749;51.398;5.466;2022-12-24T08:54:37;100996.28;;;11.09;100.00
9421;BME280;4749;51.398;5.466;2022-12-24T08:57:04;100997.16;;;11.10;100.00
9421;BME280;4749;51.398;5.466;2022-12-24T08:59:31;101000.69;;;11.12;100.00
9421;BME280;4749;51.398;5.466;2022-12-24T09:01:58;101003.31;;;11.13;100.00
9421;BME280;4749;51.398;5.466;2022-12-24T09:04:25;100997.19;;;11.14;100.00
9421;BME280;4749;51.398;5.466;2022-12-24T09:06:53;101011.22;;;11.16;100.00
9421;BME280;4749;51.398;5.466;2022-12-24T09:09:20;101018.22;;;11.16;100.00
9421;BME280;4749;51.398;5.466;2022-12-24T09:11:47;101024.38;;;11.18;100.00
9421;BME280;4749;51.398;5.466;2022-12-24T09:14:14;101034.91;;;11.18;100.00
9421;BME280;4749;51.398;5.466;2022-12-24T09:16:41;101041.06;;;11.21;100.00
9421;BME280;4749;51.398;5.466;2022-12-24T09:19:08;101042.84;;;11.27;100.00
9421;BME280;4749;51.398;5.466;2022-12-24T09:21:35;101049.88;;;11.33;100.00
9421;BME280;4749;51.398;5.466;2022-12-24T09:24:04;101051.63;;;11.40;100.00
9421;BME280;4749;51.398;5.466;2022-12-24T09:26:31;101051.66;;;11.47;100.00
9421;BME280;4749;51.398;5.466;2022-12-24T09:28:58;101060.44;;;11.51;100.00
9421;BME280;4749;51.398;5.466;2022-12-24T09:31:27;101063.09;;;11.59;100.00
9421;BME280;4749;51.398;5.466;2022-12-24T09:33:55;101070.16;;;11.69;100.00
9421;BME280;4749;51.398;5.466;2022-12-24T09:36:22;101068.38;;;11.74;100.00
9421;BME280;4749;51.398;5.466;2022-12-24T09:38:49;101072.78;;;11.75;100.00
9421;BME280;4749;51.398;5.466;2022-12-24T09:49:53;101078.13;;;12.04;100.00
9421;BME280;4749;51.398;5.466;2022-12-24T09:52:39;101076.38;;;12.04;100.00
9421;BME280;4749;51.398;5.466;2022-12-24T09:56:03;101073.72;;;11.98;100.00
9421;BME280;4749;51.398;5.466;2022-12-24T09:58:48;101079.84;;;11.91;100.00
9421;BME280;4749;51.398;5.466;2022-12-24T10:01:17;101098.28;;;11.83;100.00
9421;BME280;4749;51.398;5.466;2022-12-24T10:03:45;101089.50;;;11.80;100.00
9421;BME280;4749;51.398;5.466;2022-12-24T10:06:20;101099.13;;;11.78;100.00
9421;BME280;4749;51.398;5.466;2022-12-24T10:09:14;101091.22;;;11.79;100.00
9421;BME280;4749;51.398;5.466;2022-12-24T10:11:55;101096.53;;;11.82;100.00
9421;BME280;4749;51.398;5.466;2022-12-24T10:27:06;101106.13;;;11.65;100.00
9421;BME280;4749;51.398;5.466;2022-12-24T10:29:42;101105.25;;;11.66;100.00
9421;BME280;4749;51.398;5.466;2022-12-24T10:32:19;101104.38;;;11.75;100.00
9421;BME280;4749;51.398;5.466;2022-12-24T10:37:43;101093.03;;;11.93;100.00
9421;BME280;4749;51.398;5.466;2022-12-24T10:43:32;101112.38;;;12.18;100.00
9421;BME280;4749;51.398;5.466;2022-12-24T10:46:38;101099.22;;;12.36;100.00
9421;BME280;4749;51.398;5.466;2022-12-24T10:49:05;101100.97;;;12.38;100.00
9421;BME280;4749;51.398;5.466;2022-12-24T10:51:52;101099.19;;;12.42;100.00
9421;BME280;4749;51.398;5.466;2022-12-24T10:54:25;101092.16;;;12.38;100.00
9421;BME280;4749;51.398;5.466;2022-12-24T10:56:59;101094.81;;;12.46;100.00
9421;BME280;4749;51.398;5.466;2022-12-24T11:04:54;101099.97;;;12.96;100.00
9421;BME280;4749;51.398;5.466;2022-12-24T11:07:22;101107.81;;;13.16;100.00
9421;BME280;4749;51.398;5.466;2022-12-24T11:10:05;101105.94;;;13.48;100.00
9421;BME280;4749;51.398;5.466;2022-12-24T11:12:44;101101.44;;;13.66;100.00
9421;BME280;4749;51.398;5.466;2022-12-24T11:15:33;101105.88;;;13.59;100.00
9421;BME280;4749;51.398;5.466;2022-12-24T11:18:12;101101.50;;;13.53;100.00
9421;BME280;4749;51.398;5.466;2022-12-24T11:20:40;101103.28;;;13.53;100.00
9421;BME280;4749;51.398;5.466;2022-12-24T11:23:16;101110.34;;;13.51;100.00
9421;BME280;4749;51.398;5.466;2022-12-24T11:25:48;101101.56;;;13.44;100.00
9421;BME280;4749;51.398;5.466;2022-12-24T11:31:00;101119.19;;;13.42;100.00
9421;BME280;4749;51.398;5.466;2022-12-24T11:33:30;101114.78;;;13.41;100.00
9421;BME280;4749;51.398;5.466;2022-12-24T11:36:04;101113.03;;;13.36;100.00
9421;BME280;4749;51.398;5.466;2022-12-24T11:38:33;101113.94;;;13.32;100.00
9421;BME280;4749;51.398;5.466;2022-12-24T11:41:08;101111.34;;;13.29;100.00
9421;BME280;4749;51.398;5.466;2022-12-24T11:43:43;101117.50;;;13.26;100.00
9421;BME280;4749;51.398;5.466;2022-12-24T11:58:24;101119.94;;;13.67;100.00
9421;BME280;4749;51.398;5.466;2022-12-24T12:01:24;101123.41;;;13.75;100.00
9421;BME280;4749;51.398;5.466;2022-12-24T12:04:26;101117.22;;;13.78;100.00
9421;BME280;4749;51.398;5.466;2022-12-24T12:07:17;101107.53;;;13.78;100.00
9421;BME280;4749;51.398;5.466;2022-12-24T12:12:42;101114.72;;;13.53;100.00
9421;BME280;4749;51.398;5.466;2022-12-24T12:15:14;101111.25;;;13.47;100.00
9421;BME280;4749;51.398;5.466;2022-12-24T12:17:55;101120.91;;;13.45;100.00
9421;BME280;4749;51.398;5.466;2022-12-24T12:20:46;101128.84;;;13.46;100.00
9421;BME280;4749;51.398;5.466;2022-12-24T12:26:00;101137.50;;;13.76;100.00
9421;BME280;4749;51.398;5.466;2022-12-24T12:28:49;101142.81;;;13.73;100.00
9421;BME280;4749;51.398;5.466;2022-12-24T12:31:41;101141.94;;;13.71;100.00
9421;BME280;4749;51.398;5.466;2022-12-24T12:37:11;101147.28;;;13.59;100.00
9421;BME280;4749;51.398;5.466;2022-12-24T12:39:41;101147.31;;;13.56;100.00
9421;BME280;4749;51.398;5.466;2022-12-24T12:42:34;101146.41;;;13.63;100.00
9421;BME280;4749;51.398;5.466;2022-12-24T12:56:36;101147.13;;;13.86;100.00
9421;BME280;4749;51.398;5.466;2022-12-24T13:00:01;101159.56;;;13.72;100.00
9421;BME280;4749;51.398;5.466;2022-12-24T13:06:28;101157.94;;;13.37;100.00
9421;BME280;4749;51.398;5.466;2022-12-24T13:17:41;101156.22;;;13.16;100.00
9421;BME280;4749;51.398;5.466;2022-12-24T13:25:49;101161.47;;;13.18;100.00
9421;BME280;4749;51.398;5.466;2022-12-24T13:28:37;101157.97;;;13.11;100.00
9421;BME280;4749;51.398;5.466;2022-12-24T13:36:16;101160.66;;;13.01;100.00
9421;BME280;4749;51.398;5.466;2022-12-24T13:38:53;101165.97;;;12.96;100.00
9421;BME280;4749;51.398;5.466;2022-12-24T13:47:02;101175.63;;;12.83;100.00
9421;BME280;4749;51.398;5.466;2022-12-24T13:49:38;101171.25;;;12.81;100.00
9421;BME280;4749;51.398;5.466;2022-12-24T13:52:18;101165.97;;;12.79;100.00
9421;BME280;4749;51.398;5.466;2022-12-24T13:58:01;101178.28;;;12.74;100.00
9421;BME280;4749;51.398;5.466;2022-12-24T14:00:38;101177.41;;;12.69;100.00
9421;BME280;4749;51.398;5.466;2022-12-24T14:08:29;101189.72;;;12.67;100.00
9421;BME280;4749;51.398;5.466;2022-12-24T14:11:18;101196.78;;;12.70;100.00
9421;BME280;4749;51.398;5.466;2022-12-24T14:16:26;101205.56;;;12.79;100.00
9421;BME280;4749;51.398;5.466;2022-12-24T14:18:59;101203.78;;;12.84;100.00
9421;BME280;4749;51.398;5.466;2022-12-24T14:21:33;101212.59;;;12.88;100.00
9421;BME280;4749;51.398;5.466;2022-12-24T14:24:13;101202.88;;;12.85;100.00
9421;BME280;4749;51.398;5.466;2022-12-24T14:26:59;101208.19;;;12.75;100.00
9421;BME280;4749;51.398;5.466;2022-12-24T14:29:34;101210.81;;;12.65;100.00
9421;BME280;4749;51.398;5.466;2022-12-24T14:32:14;101215.22;;;12.53;100.00
9421;BME280;4749;51.398;5.466;2022-12-24T14:34:42;101218.72;;;12.41;100.00
9421;BME280;4749;51.398;5.466;2022-12-24T14:37:12;101218.72;;;12.30;100.00
9421;BME280;4749;51.398;5.466;2022-12-24T14:39:47;101217.84;;;12.19;100.00
9421;BME280;4749;51.398;5.466;2022-12-24T14:45:41;101220.41;;;11.99;100.00
9421;BME280;4749;51.398;5.466;2022-12-24T14:48:57;101215.97;;;11.91;100.00
9421;BME280;4749;51.398;5.466;2022-12-24T14:54:40;101232.56;;;11.74;100.00
9421;BME280;4749;51.398;5.466;2022-12-24T14:57:12;101235.19;;;11.70;100.00
9421;BME280;4749;51.398;5.466;2022-12-24T14:59:59;101232.53;;;11.62;100.00
9421;BME280;4749;51.398;5.466;2022-12-24T15:02:41;101236.00;;;11.55;100.00
9421;BME280;4749;51.398;5.466;2022-12-24T15:05:26;101255.31;;;11.52;100.00
9421;BME280;4749;51.398;5.466;2022-12-24T15:08:07;101246.50;;;11.47;100.00
9421;BME280;4749;51.398;5.466;2022-12-24T15:10:39;101250.84;;;11.41;100.00
9421;BME280;4749;51.398;5.466;2022-12-24T15:13:21;101257.84;;;11.37;100.00
9421;BME280;4749;51.398;5.466;2022-12-24T15:15:51;101254.28;;;11.29;100.00
9421;BME280;4749;51.398;5.466;2022-12-24T15:18:25;101262.13;;;11.21;100.00
9421;BME280;4749;51.398;5.466;2022-12-24T15:20:56;101255.94;;;11.15;100.00
9421;BME280;4749;51.398;5.466;2022-12-24T15:23:35;101254.13;;;11.06;100.00
9421;BME280;4749;51.398;5.466;2022-12-24T15:26:28;101256.69;;;10.98;100.00
9421;BME280;4749;51.398;5.466;2022-12-24T15:28:59;101259.25;;;10.89;100.00
9421;BME280;4749;51.398;5.466;2022-12-24T15:31:30;101259.19;;;10.80;100.00
9421;BME280;4749;51.398;5.466;2022-12-24T15:33:57;101255.59;;;10.72;100.00
9421;BME280;4749;51.398;5.466;2022-12-24T15:36:34;101266.06;;;10.63;100.00
9421;BME280;4749;51.398;5.466;2022-12-24T15:39:07;101273.00;;;10.56;100.00
9421;BME280;4749;51.398;5.466;2022-12-24T15:41:42;101279.94;;;10.48;100.00
9421;BME280;4749;51.398;5.466;2022-12-24T15:44:36;101279.03;;;10.45;100.00